createdAt,value
2019-05-07T00:02:17.558Z,13.77
2019-05-07T00:05:22.858Z,13.50
2019-05-07T00:08:26.215Z,13.17
2019-05-07T00:11:29.724Z,14.23
2019-05-07T00:14:34.557Z,13.33
2019-05-07T00:17:38.328Z,13.37
2019-05-07T00:20:42.438Z,13.10
2019-05-07T00:23:46.065Z,13.13
2019-05-07T00:26:49.661Z,13.30
2019-05-07T00:29:53.151Z,13.07
2019-05-07T00:32:56.726Z,12.87
2019-05-07T00:36:04.664Z,13.50
2019-05-07T00:39:15.640Z,14.00
2019-05-07T00:42:22.073Z,12.87
2019-05-07T00:45:27.326Z,13.00
2019-05-07T00:48:32.836Z,13.00
2019-05-07T00:51:36.165Z,13.00
2019-05-07T00:54:39.658Z,12.80
2019-05-07T00:57:43.176Z,12.63
2019-05-07T01:00:46.699Z,12.57
2019-05-07T01:03:50.247Z,12.13
2019-05-07T01:06:53.737Z,12.57
2019-05-07T01:09:57.276Z,11.87
2019-05-07T01:13:02.561Z,12.37
2019-05-07T01:16:05.947Z,11.17
2019-05-07T01:19:09.444Z,12.47
2019-05-07T01:22:12.985Z,12.17
2019-05-07T01:25:16.483Z,12.80
2019-05-07T01:28:22.184Z,12.60
2019-05-07T01:31:26.492Z,11.83
2019-05-07T01:34:32.278Z,12.23
2019-05-07T01:37:36.074Z,12.33
2019-05-07T01:40:39.617Z,11.40
2019-05-07T01:43:43.115Z,11.87
2019-05-07T01:46:46.657Z,11.40
2019-05-07T01:49:50.142Z,11.37
2019-05-07T01:52:53.666Z,10.73
2019-05-07T01:55:57.150Z,11.27
2019-05-07T01:59:02.451Z,11.63
2019-05-07T02:02:12.051Z,12.03
2019-05-07T02:05:17.319Z,10.73
2019-05-07T02:08:38.937Z,10.63
2019-05-07T02:11:44.051Z,10.97
2019-05-07T02:14:47.555Z,10.30
2019-05-07T02:17:52.564Z,10.07
2019-05-07T02:20:56.174Z,10.00
2019-05-07T02:23:59.760Z,11.17
2019-05-07T02:27:03.279Z,10.07
2019-05-07T02:30:07.111Z,11.27
2019-05-07T02:33:13.510Z,11.83
2019-05-07T02:36:15.806Z,9.97
2019-05-07T02:39:23.763Z,9.40
2019-05-07T02:42:26.024Z,9.37
2019-05-07T02:45:43.980Z,9.77
2019-05-07T02:48:53.634Z,10.07
2019-05-07T02:51:58.886Z,9.73
2019-05-07T02:55:04.370Z,9.67
2019-05-07T02:58:07.916Z,9.77
2019-05-07T03:01:13.871Z,9.93
2019-05-07T03:04:16.630Z,10.90
2019-05-07T03:07:20.124Z,9.60
2019-05-07T03:10:24.166Z,9.70
2019-05-07T03:13:27.789Z,10.63
2019-05-07T03:16:39.639Z,10.37
2019-05-07T03:19:38.012Z,10.13
2019-05-07T03:22:42.814Z,10.53
2019-05-07T03:25:54.014Z,10.93
2019-05-07T03:29:03.603Z,10.80
2019-05-07T03:32:27.387Z,10.33
2019-05-07T03:35:39.731Z,10.47
2019-05-07T03:38:43.972Z,10.70
2019-05-07T03:41:47.670Z,11.13
2019-05-07T03:44:53.717Z,12.13
2019-05-07T03:48:03.739Z,12.20
2019-05-07T03:51:07.115Z,12.10
2019-05-07T03:54:10.626Z,11.70
2019-05-07T03:57:15.799Z,10.53
2019-05-07T04:00:19.294Z,10.87
2019-05-07T04:03:24.361Z,11.13
2019-05-07T04:06:27.977Z,11.10
2019-05-07T04:09:33.378Z,11.33
2019-05-07T04:12:36.782Z,11.63
2019-05-07T04:15:43.532Z,11.03
2019-05-07T04:18:45.425Z,10.93
2019-05-07T04:21:48.939Z,10.97
2019-05-07T04:24:54.007Z,10.93
2019-05-07T04:28:03.748Z,10.87
2019-05-07T04:31:07.207Z,11.20
2019-05-07T04:34:13.487Z,10.73
2019-05-07T04:37:17.375Z,10.80
2019-05-07T04:40:24.077Z,11.13
2019-05-07T04:43:26.081Z,10.77
2019-05-07T04:46:33.037Z,10.90
2019-05-07T04:49:34.977Z,11.10
2019-05-07T04:52:38.875Z,10.70
2019-05-07T04:55:43.178Z,11.63
2019-05-07T04:58:47.044Z,11.10
2019-05-07T05:01:53.266Z,11.30
2019-05-07T05:04:57.000Z,11.60
2019-05-07T05:08:00.577Z,11.10
2019-05-07T05:11:04.251Z,12.27
2019-05-07T05:14:08.174Z,12.73
2019-05-07T05:17:12.980Z,12.40
2019-05-07T05:20:18.170Z,12.43
2019-05-07T05:23:23.232Z,11.80
2019-05-07T05:26:26.782Z,12.00
2019-05-07T05:29:32.308Z,12.03
2019-05-07T05:32:35.914Z,11.83
2019-05-07T05:35:39.419Z,11.53
2019-05-07T05:38:42.975Z,11.27
2019-05-07T05:41:48.032Z,10.50
2019-05-07T05:44:52.493Z,10.93
2019-05-07T05:48:04.714Z,11.77
2019-05-07T05:51:08.744Z,10.77
2019-05-07T05:54:22.435Z,9.83
2019-05-07T05:57:33.089Z,9.27
2019-05-07T06:00:42.268Z,9.10
2019-05-07T06:03:59.809Z,10.53
2019-05-07T06:07:11.690Z,8.53
2019-05-07T06:10:23.675Z,7.75
2019-05-07T06:13:37.674Z,7.75
2019-05-07T06:16:42.741Z,8.08
2019-05-07T06:19:47.892Z,9.05
2019-05-07T06:22:55.676Z,7.92
2019-05-07T06:25:59.225Z,7.95
2019-05-07T06:29:02.719Z,7.90
2019-05-07T06:32:13.296Z,7.40
2019-05-07T06:35:19.349Z,7.42
2019-05-07T06:38:22.588Z,7.97
2019-05-07T06:41:44.354Z,7.65
2019-05-07T06:44:49.435Z,8.10
2019-05-07T06:47:52.927Z,7.85
2019-05-07T06:50:59.930Z,8.33
2019-05-07T06:54:03.461Z,7.60
2019-05-07T06:57:06.995Z,6.53
2019-05-07T07:00:25.189Z,6.30
2019-05-07T07:03:33.261Z,6.40
2019-05-07T07:06:52.537Z,6.17
2019-05-07T07:09:57.746Z,6.30
2019-05-07T07:13:02.396Z,5.92
2019-05-07T07:16:06.596Z,6.20
2019-05-07T07:19:12.456Z,6.10
2019-05-07T07:22:16.544Z,6.95
2019-05-07T07:25:22.717Z,5.22
2019-05-07T07:28:25.893Z,4.37
2019-05-07T07:31:31.926Z,4.40
2019-05-07T07:34:37.313Z,4.28
2019-05-07T07:37:42.983Z,4.00
2019-05-07T07:40:48.124Z,3.77
2019-05-07T07:43:52.600Z,4.10
2019-05-07T07:46:56.246Z,4.08
2019-05-07T07:50:02.182Z,4.20
2019-05-07T07:53:04.910Z,3.98
2019-05-07T07:56:26.519Z,4.47
2019-05-07T07:59:37.496Z,4.53
2019-05-07T08:02:42.570Z,4.63
2019-05-07T08:05:46.115Z,4.60
2019-05-07T08:08:49.608Z,4.97
2019-05-07T08:11:53.147Z,4.77
2019-05-07T08:15:13.401Z,4.73
2019-05-07T08:18:02.841Z,4.30
2019-05-07T08:21:08.085Z,4.80
2019-05-07T08:24:12.343Z,5.17
2019-05-07T08:27:15.849Z,4.90
2019-05-07T08:30:22.250Z,4.53
2019-05-07T08:33:33.033Z,4.70
2019-05-07T08:36:36.529Z,4.90
2019-05-07T08:39:40.068Z,5.47
2019-05-07T08:42:43.550Z,5.60
2019-05-07T08:45:54.413Z,4.90
2019-05-07T08:48:57.851Z,5.60
2019-05-07T08:52:03.437Z,5.30
2019-05-07T08:55:07.995Z,6.30
2019-05-07T08:58:12.078Z,4.80
2019-05-07T09:01:15.776Z,4.70
2019-05-07T09:04:19.248Z,5.70
2019-05-07T09:07:22.764Z,5.20
2019-05-07T09:10:26.255Z,5.47
2019-05-07T09:13:29.800Z,7.03
2019-05-07T09:16:33.281Z,6.87
2019-05-07T09:19:50.012Z,7.37
2019-05-07T09:22:42.701Z,6.47
2019-05-07T09:25:48.114Z,6.40
2019-05-07T09:28:53.187Z,6.63
2019-05-07T09:32:12.071Z,6.80
2019-05-07T09:35:21.680Z,6.67
2019-05-07T09:38:25.479Z,6.40
2019-05-07T09:41:29.031Z,6.90
2019-05-07T09:44:32.619Z,6.50
2019-05-07T09:47:36.145Z,5.93
2019-05-07T09:50:39.717Z,5.90
2019-05-07T09:53:43.309Z,5.53
2019-05-07T09:56:46.754Z,4.93
2019-05-07T09:59:50.304Z,4.73
2019-05-07T10:02:56.591Z,4.70
2019-05-07T10:05:59.119Z,4.17
2019-05-07T10:09:02.978Z,5.13
2019-05-07T10:12:08.138Z,5.73
2019-05-07T10:15:12.285Z,5.20
2019-05-07T10:18:17.868Z,5.30
2019-05-07T10:21:22.082Z,6.30
2019-05-07T10:24:26.028Z,5.90
2019-05-07T10:27:29.533Z,5.30
2019-05-07T10:30:33.034Z,5.00
2019-05-07T10:33:36.546Z,4.17
2019-05-07T10:36:42.024Z,3.53
2019-05-07T10:39:45.410Z,3.60
2019-05-07T10:42:48.931Z,3.70
2019-05-07T10:46:12.642Z,3.73
2019-05-07T10:49:17.205Z,3.80
2019-05-07T10:52:22.770Z,3.70
2019-05-07T10:55:25.810Z,3.80
2019-05-07T10:58:29.325Z,3.57
2019-05-07T11:01:35.065Z,3.50
2019-05-07T11:04:42.737Z,3.20
2019-05-07T11:07:43.750Z,3.43
2019-05-07T11:10:47.309Z,3.40
2019-05-07T11:13:55.332Z,3.77
2019-05-07T11:16:57.597Z,3.50
2019-05-07T11:20:01.055Z,3.77
2019-05-07T11:23:04.672Z,3.73
2019-05-07T11:26:08.179Z,3.47
2019-05-07T11:29:13.007Z,3.83
2019-05-07T11:32:16.815Z,4.00
2019-05-07T11:35:22.746Z,4.00
2019-05-07T11:38:25.489Z,4.00
2019-05-07T11:41:33.533Z,4.00
2019-05-07T11:44:37.039Z,4.30
2019-05-07T11:47:40.552Z,3.97
2019-05-07T11:50:45.647Z,4.30
2019-05-07T11:54:07.934Z,4.60
2019-05-07T11:57:12.797Z,4.03
2019-05-07T12:00:21.864Z,4.20
2019-05-07T12:03:25.794Z,3.97
2019-05-07T12:06:29.250Z,3.73
2019-05-07T12:09:33.427Z,4.00
2019-05-07T12:12:38.740Z,3.60
2019-05-07T12:15:42.899Z,3.63
2019-05-07T12:18:46.794Z,3.43
2019-05-07T12:21:52.504Z,3.90
2019-05-07T12:24:55.457Z,3.97
2019-05-07T12:27:58.995Z,3.70
2019-05-07T12:31:19.049Z,3.57
2019-05-07T12:34:24.146Z,3.30
2019-05-07T12:37:27.712Z,3.70
2019-05-07T12:40:32.504Z,3.37
2019-05-07T12:43:36.327Z,3.63
2019-05-07T12:46:42.092Z,3.70
2019-05-07T12:49:44.988Z,4.10
2019-05-07T12:52:50.081Z,3.97
2019-05-07T12:55:55.125Z,5.37
2019-05-07T12:58:58.664Z,5.67
2019-05-07T13:02:21.670Z,4.93
2019-05-07T13:05:14.991Z,28.53
2019-05-07T13:08:18.534Z,5.63
2019-05-07T13:11:22.263Z,5.77
2019-05-07T13:14:25.755Z,5.10
2019-05-07T13:17:29.263Z,5.17
2019-05-07T13:20:32.791Z,5.83
2019-05-07T13:23:36.875Z,25.47
2019-05-07T13:26:42.763Z,65.90
2019-05-07T13:29:46.641Z,17.40
2019-05-07T13:32:52.452Z,5.93
2019-05-07T13:35:55.616Z,7.47
2019-05-07T13:39:02.466Z,4.97
2019-05-07T13:42:24.340Z,4.63
2019-05-07T13:45:31.632Z,4.77
2019-05-07T13:48:36.135Z,5.40
2019-05-07T13:51:41.673Z,23.10
2019-05-07T13:54:44.992Z,7.97
2019-05-07T13:57:48.524Z,6.60
2019-05-07T14:00:56.073Z,9.00
2019-05-07T14:04:03.798Z,6.10
2019-05-07T14:07:05.149Z,5.67
2019-05-07T14:10:08.752Z,5.17
2019-05-07T14:13:17.151Z,4.93
2019-05-07T14:16:17.469Z,5.20
2019-05-07T14:19:22.417Z,5.37
2019-05-07T14:22:26.449Z,4.90
2019-05-07T14:25:29.950Z,4.80
2019-05-07T14:28:33.485Z,6.07
2019-05-07T14:31:37.039Z,6.23
2019-05-07T14:34:58.365Z,5.97
2019-05-07T14:38:03.420Z,5.43
2019-05-07T14:41:06.948Z,5.73
2019-05-07T14:44:12.174Z,5.50
2019-05-07T14:47:16.313Z,5.30
2019-05-07T14:50:19.879Z,5.30
2019-05-07T14:53:23.385Z,4.90
2019-05-07T14:56:27.039Z,5.20
2019-05-07T14:59:32.301Z,5.03
2019-05-07T15:02:35.806Z,5.30
2019-05-07T15:05:39.412Z,4.87
2019-05-07T15:08:43.056Z,4.80
2019-05-07T15:11:46.554Z,4.23
2019-05-07T15:14:50.110Z,5.50
2019-05-07T15:18:00.934Z,6.40
2019-05-07T15:21:04.447Z,5.80
2019-05-07T15:24:07.949Z,6.40
2019-05-07T15:27:12.201Z,6.00
2019-05-07T15:30:15.789Z,7.20
2019-05-07T15:33:19.407Z,6.60
2019-05-07T15:36:22.912Z,6.63
2019-05-07T15:39:26.465Z,7.03
2019-05-07T15:42:29.961Z,6.47
2019-05-07T15:45:33.498Z,7.07
2019-05-07T15:48:36.997Z,7.23
2019-05-07T15:51:41.859Z,6.43
2019-05-07T15:54:45.533Z,5.83
2019-05-07T15:57:49.774Z,6.10
2019-05-07T16:00:53.286Z,7.13
2019-05-07T16:03:56.834Z,7.77
2019-05-07T16:07:02.204Z,11.53
2019-05-07T16:10:06.965Z,9.27
2019-05-07T16:13:13.730Z,11.00
2019-05-07T16:16:17.213Z,10.20
2019-05-07T16:19:22.285Z,10.33
2019-05-07T16:22:27.411Z,7.50
2019-05-07T16:25:32.699Z,8.00
2019-05-07T16:28:36.072Z,7.23
2019-05-07T16:31:39.545Z,8.33
2019-05-07T16:34:43.124Z,9.37
2019-05-07T16:37:46.609Z,8.13
2019-05-07T16:40:52.031Z,9.07
2019-05-07T16:43:55.264Z,10.57
2019-05-07T16:46:58.787Z,8.00
2019-05-07T16:50:04.156Z,7.40
2019-05-07T16:53:07.456Z,8.93
2019-05-07T16:56:12.356Z,9.93
2019-05-07T16:59:16.221Z,10.90
2019-05-07T17:02:21.288Z,10.40
2019-05-07T17:05:24.854Z,10.03
2019-05-07T17:08:31.745Z,9.00
2019-05-07T17:11:35.194Z,10.13
2019-05-07T17:14:38.690Z,11.03
2019-05-07T17:17:42.799Z,10.97
2019-05-07T17:20:46.525Z,12.37
2019-05-07T17:23:51.826Z,10.93
2019-05-07T17:26:55.204Z,11.43
2019-05-07T17:29:58.843Z,12.53
2019-05-07T17:33:02.339Z,13.30
2019-05-07T17:36:05.835Z,12.90
2019-05-07T17:39:09.429Z,11.33
2019-05-07T17:42:12.958Z,13.20
2019-05-07T17:45:16.754Z,12.27
2019-05-07T17:48:20.349Z,12.23
2019-05-07T17:51:37.711Z,12.93
2019-05-07T17:54:42.345Z,13.10
2019-05-07T17:57:46.203Z,14.00
2019-05-07T18:00:52.873Z,14.63
2019-05-07T18:03:56.733Z,16.00
2019-05-07T18:07:01.097Z,15.13
2019-05-07T18:10:05.500Z,16.90
2019-05-07T18:13:09.138Z,20.40
2019-05-07T18:16:22.840Z,22.00
2019-05-07T18:19:28.255Z,21.60
2019-05-07T18:22:32.553Z,20.73
2019-05-07T18:25:36.339Z,21.07
2019-05-07T18:28:41.596Z,23.47
2019-05-07T18:31:52.643Z,25.77
2019-05-07T18:34:56.187Z,24.73
2019-05-07T18:37:59.764Z,23.77
2019-05-07T18:41:03.347Z,20.90
2019-05-07T18:44:12.190Z,21.77
2019-05-07T18:47:12.945Z,22.67
2019-05-07T18:50:16.790Z,20.93
2019-05-07T18:53:22.551Z,20.17
2019-05-07T18:56:25.593Z,31.77
2019-05-07T18:59:31.798Z,31.47
2019-05-07T19:02:35.682Z,26.13
2019-05-07T19:05:39.266Z,24.00
2019-05-07T19:08:42.895Z,31.93
2019-05-07T19:11:46.448Z,29.40
2019-05-07T19:14:51.757Z,31.23
2019-05-07T19:17:55.390Z,33.17
2019-05-07T19:21:00.113Z,34.30
2019-05-07T19:24:03.893Z,37.23
2019-05-07T19:27:07.513Z,31.10
2019-05-07T19:30:12.706Z,29.03
2019-05-07T19:33:16.472Z,25.53
2019-05-07T19:36:22.222Z,25.03
2019-05-07T19:39:25.260Z,26.57
2019-05-07T19:42:31.839Z,23.93
2019-05-07T19:45:35.313Z,25.57
2019-05-07T19:48:40.220Z,24.27
2019-05-07T19:51:44.848Z,24.53
2019-05-07T19:54:58.906Z,23.73
2019-05-07T19:58:01.047Z,23.83
2019-05-07T20:01:05.827Z,23.77
2019-05-07T20:04:10.211Z,24.93
2019-05-07T20:07:15.166Z,40.20
2019-05-07T20:10:21.724Z,41.57
2019-05-07T20:13:27.341Z,38.60
2019-05-07T20:16:32.970Z,36.60
2019-05-07T20:19:36.861Z,37.23
2019-05-07T20:22:43.858Z,36.63
2019-05-07T20:25:47.524Z,35.30
2019-05-07T20:28:52.550Z,36.67
2019-05-07T20:31:56.521Z,44.27
2019-05-07T20:35:00.088Z,50.87
2019-05-07T20:38:03.774Z,44.00
2019-05-07T20:41:07.355Z,49.83
2019-05-07T20:44:12.371Z,46.20
2019-05-07T20:47:15.954Z,39.23
2019-05-07T20:50:24.083Z,37.60
2019-05-07T20:53:45.573Z,32.73
2019-05-07T20:56:56.753Z,27.83
2019-05-07T21:00:02.788Z,27.83
2019-05-07T21:03:23.384Z,25.53
2019-05-07T21:06:26.393Z,24.63
2019-05-07T21:09:29.931Z,27.40
2019-05-07T21:12:33.415Z,26.43
2019-05-07T21:15:36.964Z,26.87
2019-05-07T21:18:42.132Z,26.67
2019-05-07T21:21:45.663Z,28.10
2019-05-07T21:24:49.237Z,27.50
2019-05-07T21:27:53.222Z,26.13
2019-05-07T21:30:56.753Z,26.43
2019-05-07T21:34:00.296Z,25.63
2019-05-07T21:37:03.814Z,26.97
2019-05-07T21:40:07.340Z,27.07
2019-05-07T21:43:12.027Z,25.83
2019-05-07T21:46:16.016Z,24.77
2019-05-07T21:49:19.521Z,24.97
2019-05-07T21:52:24.457Z,26.23
2019-05-07T21:55:29.503Z,25.40
2019-05-07T21:58:43.514Z,24.93
2019-05-07T22:01:48.583Z,24.87
2019-05-07T22:04:52.910Z,24.37
2019-05-07T22:07:56.607Z,24.27
2019-05-07T22:11:02.174Z,24.47
2019-05-07T22:14:05.380Z,23.03
2019-05-07T22:17:08.925Z,25.13
2019-05-07T22:20:12.403Z,32.47
2019-05-07T22:23:15.988Z,30.07
2019-05-07T22:26:23.253Z,29.23
2019-05-07T22:29:24.616Z,29.13
2019-05-07T22:32:38.164Z,28.60
2019-05-07T22:35:47.861Z,29.20
2019-05-07T22:38:52.650Z,28.33
2019-05-07T22:41:56.368Z,27.27
2019-05-07T22:44:59.853Z,27.13
2019-05-07T22:48:03.409Z,27.63
2019-05-07T22:51:06.913Z,27.83
2019-05-07T22:54:11.835Z,27.47
2019-05-07T22:57:35.296Z,28.47
2019-05-07T23:00:42.528Z,28.33
2019-05-07T23:03:45.561Z,28.90
2019-05-07T23:06:49.143Z,28.23
2019-05-07T23:09:52.685Z,28.13
2019-05-07T23:12:56.228Z,28.47
2019-05-07T23:15:59.711Z,26.13
2019-05-07T23:19:03.271Z,27.43
2019-05-07T23:22:06.765Z,26.33
2019-05-07T23:25:10.303Z,27.03
2019-05-07T23:28:13.793Z,26.97
2019-05-07T23:31:17.348Z,26.10
2019-05-07T23:34:21.981Z,25.73
2019-05-07T23:37:26.045Z,26.57
2019-05-07T23:40:47.414Z,24.57
2019-05-07T23:44:08.751Z,25.23
2019-05-07T23:47:12.290Z,26.50
2019-05-07T23:50:15.909Z,26.67
2019-05-07T23:53:19.403Z,26.37
2019-05-07T23:56:22.948Z,25.07
2019-05-07T23:59:26.457Z,26.43
